sensor_id;sensor_type;location;lat;lon;timestamp;pressure;altitude;pressure_sealevel;temperature;humidity
47753;BME280;2038;51.728;6.674;2023-05-20T00:01:01;101690.97;;;13.82;78.26
47753;BME280;2038;51.728;6.674;2023-05-20T00:03:27;101704.34;;;13.78;78.92
47753;BME280;2038;51.728;6.674;2023-05-20T00:05:54;101699.38;;;13.68;79.51
47753;BME280;2038;51.728;6.674;2023-05-20T00:08:20;101695.56;;;13.75;79.08
47753;BME280;2038;51.728;6.674;2023-05-20T00:10:46;101701.66;;;13.77;79.59
47753;BME280;2038;51.728;6.674;2023-05-20T00:13:13;101701.59;;;13.75;79.87
47753;BME280;2038;51.728;6.674;2023-05-20T00:15:39;101691.53;;;13.78;79.86
47753;BME280;2038;51.728;6.674;2023-05-20T00:18:06;101687.97;;;13.76;80.47
47753;BME280;2038;51.728;6.674;2023-05-20T00:20:33;101688.78;;;13.75;80.89
47753;BME280;2038;51.728;6.674;2023-05-20T00:22:59;101696.66;;;13.78;80.52
47753;BME280;2038;51.728;6.674;2023-05-20T00:25:25;101699.59;;;13.71;80.15
47753;BME280;2038;51.728;6.674;2023-05-20T00:27:52;101698.22;;;13.76;80.57
47753;BME280;2038;51.728;6.674;2023-05-20T00:30:18;101688.66;;;13.74;80.75
47753;BME280;2038;51.728;6.674;2023-05-20T00:32:44;101685.00;;;13.70;81.13
47753;BME280;2038;51.728;6.674;2023-05-20T00:35:11;101684.22;;;13.71;81.79
47753;BME280;2038;51.728;6.674;2023-05-20T00:37:37;101688.78;;;13.75;82.01
47753;BME280;2038;51.728;6.674;2023-05-20T00:40:04;101687.88;;;13.75;82.33
47753;BME280;2038;51.728;6.674;2023-05-20T00:42:31;101687.00;;;13.74;82.07
47753;BME280;2038;51.728;6.674;2023-05-20T00:44:57;101682.31;;;13.69;82.72
47753;BME280;2038;51.728;6.674;2023-05-20T00:47:27;101686.56;;;13.68;82.47
47753;BME280;2038;51.728;6.674;2023-05-20T00:49:55;101685.78;;;13.69;82.75
47753;BME280;2038;51.728;6.674;2023-05-20T00:52:22;101699.28;;;13.67;83.55
47753;BME280;2038;51.728;6.674;2023-05-20T00:54:50;101685.47;;;13.65;83.47
47753;BME280;2038;51.728;6.674;2023-05-20T00:57:18;101691.28;;;13.62;83.37
47753;BME280;2038;51.728;6.674;2023-05-20T00:59:45;101695.88;;;13.54;83.92
47753;BME280;2038;51.728;6.674;2023-05-20T01:02:12;101685.31;;;13.50;84.75
47753;BME280;2038;51.728;6.674;2023-05-20T01:04:39;101695.00;;;13.54;84.68
47753;BME280;2038;51.728;6.674;2023-05-20T01:07:06;101683.97;;;13.55;85.07
47753;BME280;2038;51.728;6.674;2023-05-20T01:09:33;101687.09;;;13.51;85.05
47753;BME280;2038;51.728;6.674;2023-05-20T01:14:40;101684.56;;;13.64;84.50
47753;BME280;2038;51.728;6.674;2023-05-20T01:17:12;101686.28;;;13.64;84.81
47753;BME280;2038;51.728;6.674;2023-05-20T01:19:46;101687.94;;;13.63;85.07
47753;BME280;2038;51.728;6.674;2023-05-20T01:22:13;101691.16;;;13.60;85.04
47753;BME280;2038;51.728;6.674;2023-05-20T01:24:45;101684.28;;;13.59;85.31
47753;BME280;2038;51.728;6.674;2023-05-20T01:27:18;101685.06;;;13.58;86.15
47753;BME280;2038;51.728;6.674;2023-05-20T01:29:50;101678.84;;;13.55;85.72
47753;BME280;2038;51.728;6.674;2023-05-20T01:32:57;101676.44;;;13.45;86.58
47753;BME280;2038;51.728;6.674;2023-05-20T01:35:19;101688.13;;;13.41;87.29
47753;BME280;2038;51.728;6.674;2023-05-20T01:37:46;101686.66;;;13.45;86.74
47753;BME280;2038;51.728;6.674;2023-05-20T01:40:14;101686.34;;;13.40;87.48
47753;BME280;2038;51.728;6.674;2023-05-20T01:42:42;101690.63;;;13.40;87.68
47753;BME280;2038;51.728;6.674;2023-05-20T01:45:10;101692.16;;;13.38;87.36
47753;BME280;2038;51.728;6.674;2023-05-20T01:47:37;101686.72;;;13.33;87.62
47753;BME280;2038;51.728;6.674;2023-05-20T01:50:04;101682.09;;;13.28;88.84
47753;BME280;2038;51.728;6.674;2023-05-20T01:52:32;101684.84;;;13.31;88.31
47753;BME280;2038;51.728;6.674;2023-05-20T01:54:58;101688.75;;;13.26;89.21
47753;BME280;2038;51.728;6.674;2023-05-20T01:57:24;101683.50;;;13.24;89.14
47753;BME280;2038;51.728;6.674;2023-05-20T01:59:50;101677.28;;;13.21;89.51
47753;BME280;2038;51.728;6.674;2023-05-20T02:02:17;101679.22;;;13.23;89.32
47753;BME280;2038;51.728;6.674;2023-05-20T02:04:45;101669.75;;;13.22;89.59
47753;BME280;2038;51.728;6.674;2023-05-20T02:07:13;101669.41;;;13.18;90.07
47753;BME280;2038;51.728;6.674;2023-05-20T02:09:40;101668.53;;;13.17;90.18
47753;BME280;2038;51.728;6.674;2023-05-20T02:12:07;101660.97;;;13.19;89.67
47753;BME280;2038;51.728;6.674;2023-05-20T02:14:34;101664.88;;;13.13;90.28
47753;BME280;2038;51.728;6.674;2023-05-20T02:17:00;101668.72;;;13.08;91.30
47753;BME280;2038;51.728;6.674;2023-05-20T02:19:26;101663.53;;;13.07;91.39
47753;BME280;2038;51.728;6.674;2023-05-20T02:21:53;101662.44;;;13.03;91.05
47753;BME280;2038;51.728;6.674;2023-05-20T02:24:19;101662.09;;;12.99;91.58
47753;BME280;2038;51.728;6.674;2023-05-20T02:26:46;101661.88;;;12.96;91.45
47753;BME280;2038;51.728;6.674;2023-05-20T02:29:14;101659.78;;;12.90;92.54
47753;BME280;2038;51.728;6.674;2023-05-20T02:31:40;101657.00;;;12.87;92.96
47753;BME280;2038;51.728;6.674;2023-05-20T02:34:07;101651.38;;;12.80;93.58
47753;BME280;2038;51.728;6.674;2023-05-20T02:36:33;101650.56;;;12.81;93.29
47753;BME280;2038;51.728;6.674;2023-05-20T02:38:59;101651.56;;;12.83;92.91
47753;BME280;2038;51.728;6.674;2023-05-20T02:41:26;101656.34;;;12.78;93.21
47753;BME280;2038;51.728;6.674;2023-05-20T02:43:52;101658.03;;;12.78;93.53
47753;BME280;2038;51.728;6.674;2023-05-20T02:46:19;101649.56;;;12.79;93.38
47753;BME280;2038;51.728;6.674;2023-05-20T02:48:45;101646.13;;;12.78;92.99
47753;BME280;2038;51.728;6.674;2023-05-20T02:51:11;101645.91;;;12.75;93.24
47753;BME280;2038;51.728;6.674;2023-05-20T02:53:37;101651.13;;;12.77;93.40
47753;BME280;2038;51.728;6.674;2023-05-20T02:56:04;101641.44;;;12.73;93.79
47753;BME280;2038;51.728;6.674;2023-05-20T02:58:30;101644.00;;;12.73;93.69
47753;BME280;2038;51.728;6.674;2023-05-20T03:00:58;101641.78;;;12.77;93.59
47753;BME280;2038;51.728;6.674;2023-05-20T03:03:25;101642.69;;;12.78;93.73
47753;BME280;2038;51.728;6.674;2023-05-20T03:05:52;101639.78;;;12.73;93.94
47753;BME280;2038;51.728;6.674;2023-05-20T03:08:20;101639.69;;;12.72;93.84
47753;BME280;2038;51.728;6.674;2023-05-20T03:10:48;101646.72;;;12.62;94.43
47753;BME280;2038;51.728;6.674;2023-05-20T03:13:15;101640.91;;;12.65;94.24
47753;BME280;2038;51.728;6.674;2023-05-20T03:15:41;101647.81;;;12.66;94.96
47753;BME280;2038;51.728;6.674;2023-05-20T03:18:10;101646.59;;;12.61;95.18
47753;BME280;2038;51.728;6.674;2023-05-20T03:20:38;101648.59;;;12.65;95.10
47753;BME280;2038;51.728;6.674;2023-05-20T03:23:06;101642.50;;;12.63;94.79
47753;BME280;2038;51.728;6.674;2023-05-20T03:25:33;101650.03;;;12.61;95.00
47753;BME280;2038;51.728;6.674;2023-05-20T03:28:00;101645.59;;;12.59;95.25
47753;BME280;2038;51.728;6.674;2023-05-20T03:30:27;101654.19;;;12.59;95.34
47753;BME280;2038;51.728;6.674;2023-05-20T03:32:54;101647.06;;;12.55;95.62
47753;BME280;2038;51.728;6.674;2023-05-20T03:35:22;101646.50;;;12.59;95.54
47753;BME280;2038;51.728;6.674;2023-05-20T03:37:48;101649.63;;;12.55;95.85
47753;BME280;2038;51.728;6.674;2023-05-20T03:40:16;101644.16;;;12.51;95.81
47753;BME280;2038;51.728;6.674;2023-05-20T03:42:42;101651.28;;;12.55;95.52
47753;BME280;2038;51.728;6.674;2023-05-20T03:45:09;101651.94;;;12.52;96.04
47753;BME280;2038;51.728;6.674;2023-05-20T03:47:35;101644.94;;;12.50;96.05
47753;BME280;2038;51.728;6.674;2023-05-20T03:50:02;101645.38;;;12.44;97.24
47753;BME280;2038;51.728;6.674;2023-05-20T03:52:28;101642.06;;;12.45;96.70
47753;BME280;2038;51.728;6.674;2023-05-20T03:54:54;101648.81;;;12.45;96.76
47753;BME280;2038;51.728;6.674;2023-05-20T03:57:21;101643.84;;;12.46;97.18
47753;BME280;2038;51.728;6.674;2023-05-20T03:59:48;101646.16;;;12.55;97.00
47753;BME280;2038;51.728;6.674;2023-05-20T04:02:14;101643.94;;;12.59;96.52
47753;BME280;2038;51.728;6.674;2023-05-20T04:04:41;101647.38;;;12.60;96.30
47753;BME280;2038;51.728;6.674;2023-05-20T04:07:08;101648.72;;;12.55;97.00
47753;BME280;2038;51.728;6.674;2023-05-20T04:09:35;101639.06;;;12.51;96.19
47753;BME280;2038;51.728;6.674;2023-05-20T04:12:02;101643.69;;;12.56;96.34
47753;BME280;2038;51.728;6.674;2023-05-20T04:14:28;101651.94;;;12.52;96.54
47753;BME280;2038;51.728;6.674;2023-05-20T04:16:54;101640.16;;;12.54;96.63
47753;BME280;2038;51.728;6.674;2023-05-20T04:19:21;101643.81;;;12.58;96.79
47753;BME280;2038;51.728;6.674;2023-05-20T04:21:48;101647.06;;;12.55;96.74
47753;BME280;2038;51.728;6.674;2023-05-20T04:24:15;101647.16;;;12.57;97.21
47753;BME280;2038;51.728;6.674;2023-05-20T04:26:41;101650.59;;;12.57;96.65
47753;BME280;2038;51.728;6.674;2023-05-20T04:29:07;101661.16;;;12.62;96.60
47753;BME280;2038;51.728;6.674;2023-05-20T04:31:34;101665.72;;;12.66;96.51
47753;BME280;2038;51.728;6.674;2023-05-20T04:34:00;101665.72;;;12.66;96.98
47753;BME280;2038;51.728;6.674;2023-05-20T04:36:27;101662.72;;;12.72;96.12
47753;BME280;2038;51.728;6.674;2023-05-20T04:38:56;101669.84;;;12.76;96.82
47753;BME280;2038;51.728;6.674;2023-05-20T04:41:23;101663.13;;;12.78;96.57
47753;BME280;2038;51.728;6.674;2023-05-20T04:43:49;101661.81;;;12.83;96.72
47753;BME280;2038;51.728;6.674;2023-05-20T04:46:15;101670.59;;;12.86;96.55
47753;BME280;2038;51.728;6.674;2023-05-20T04:48:42;101668.56;;;12.94;96.12
47753;BME280;2038;51.728;6.674;2023-05-20T04:51:12;101672.22;;;12.97;95.83
47753;BME280;2038;51.728;6.674;2023-05-20T04:53:39;101657.19;;;13.02;95.96
47753;BME280;2038;51.728;6.674;2023-05-20T04:56:05;101660.84;;;13.05;95.85
47753;BME280;2038;51.728;6.674;2023-05-20T04:58:31;101658.09;;;13.14;95.45
47753;BME280;2038;51.728;6.674;2023-05-20T05:00:58;101660.38;;;13.23;95.53
47753;BME280;2038;51.728;6.674;2023-05-20T05:03:24;101654.13;;;13.31;94.97
47753;BME280;2038;51.728;6.674;2023-05-20T05:05:54;101651.50;;;13.42;94.75
47753;BME280;2038;51.728;6.674;2023-05-20T05:08:21;101648.31;;;13.58;95.03
47753;BME280;2038;51.728;6.674;2023-05-20T05:10:47;101650.50;;;13.65;94.42
47753;BME280;2038;51.728;6.674;2023-05-20T05:13:13;101656.56;;;13.79;94.14
47753;BME280;2038;51.728;6.674;2023-05-20T05:15:39;101650.34;;;13.88;93.60
47753;BME280;2038;51.728;6.674;2023-05-20T05:18:06;101649.09;;;13.95;93.39
47753;BME280;2038;51.728;6.674;2023-05-20T05:20:32;101646.25;;;14.03;92.80
47753;BME280;2038;51.728;6.674;2023-05-20T05:22:58;101641.44;;;14.08;92.80
47753;BME280;2038;51.728;6.674;2023-05-20T05:25:24;101651.28;;;14.15;92.04
47753;BME280;2038;51.728;6.674;2023-05-20T05:27:50;101648.34;;;14.22;91.92
47753;BME280;2038;51.728;6.674;2023-05-20T05:30:17;101650.91;;;14.22;91.76
47753;BME280;2038;51.728;6.674;2023-05-20T05:32:43;101650.25;;;14.38;91.58
47753;BME280;2038;51.728;6.674;2023-05-20T05:35:09;101649.84;;;14.58;91.50
47753;BME280;2038;51.728;6.674;2023-05-20T05:37:36;101650.03;;;14.74;91.06
47753;BME280;2038;51.728;6.674;2023-05-20T05:40:02;101654.25;;;14.87;89.67
47753;BME280;2038;51.728;6.674;2023-05-20T05:42:29;101655.69;;;14.96;89.42
47753;BME280;2038;51.728;6.674;2023-05-20T05:44:55;101650.66;;;14.98;88.60
47753;BME280;2038;51.728;6.674;2023-05-20T05:47:21;101653.88;;;15.09;89.65
47753;BME280;2038;51.728;6.674;2023-05-20T05:49:48;101643.06;;;15.27;89.46
47753;BME280;2038;51.728;6.674;2023-05-20T05:52:14;101645.09;;;15.33;87.98
47753;BME280;2038;51.728;6.674;2023-05-20T05:54:40;101650.50;;;15.37;87.65
47753;BME280;2038;51.728;6.674;2023-05-20T05:57:06;101636.28;;;15.42;88.00
47753;BME280;2038;51.728;6.674;2023-05-20T05:59:34;101637.75;;;15.52;87.44
47753;BME280;2038;51.728;6.674;2023-05-20T06:02:00;101634.78;;;15.46;87.43
47753;BME280;2038;51.728;6.674;2023-05-20T06:04:27;101635.09;;;15.65;86.83
47753;BME280;2038;51.728;6.674;2023-05-20T06:06:53;101637.31;;;15.59;87.92
47753;BME280;2038;51.728;6.674;2023-05-20T06:09:19;101640.63;;;15.71;85.71
47753;BME280;2038;51.728;6.674;2023-05-20T06:11:45;101640.78;;;15.89;85.63
47753;BME280;2038;51.728;6.674;2023-05-20T06:14:12;101642.84;;;15.95;85.56
47753;BME280;2038;51.728;6.674;2023-05-20T06:16:38;101640.78;;;15.89;86.27
47753;BME280;2038;51.728;6.674;2023-05-20T06:19:04;101646.47;;;15.98;84.55
47753;BME280;2038;51.728;6.674;2023-05-20T06:21:31;101635.38;;;15.99;85.27
47753;BME280;2038;51.728;6.674;2023-05-20T06:23:57;101635.66;;;16.04;86.05
47753;BME280;2038;51.728;6.674;2023-05-20T06:26:24;101634.56;;;16.15;85.88
47753;BME280;2038;51.728;6.674;2023-05-20T06:28:50;101628.06;;;16.36;84.57
47753;BME280;2038;51.728;6.674;2023-05-20T06:31:18;101624.94;;;16.42;84.36
47753;BME280;2038;51.728;6.674;2023-05-20T06:33:44;101622.97;;;16.52;82.71
47753;BME280;2038;51.728;6.674;2023-05-20T06:36:10;101615.31;;;16.54;84.42
47753;BME280;2038;51.728;6.674;2023-05-20T06:38:37;101612.75;;;16.54;83.72
47753;BME280;2038;51.728;6.674;2023-05-20T06:41:03;101617.09;;;16.69;82.27
47753;BME280;2038;51.728;6.674;2023-05-20T06:43:29;101613.56;;;16.67;82.79
47753;BME280;2038;51.728;6.674;2023-05-20T06:45:55;101612.19;;;16.74;81.00
47753;BME280;2038;51.728;6.674;2023-05-20T06:48:22;101610.19;;;16.68;82.16
47753;BME280;2038;51.728;6.674;2023-05-20T06:50:48;101605.50;;;16.77;80.11
47753;BME280;2038;51.728;6.674;2023-05-20T06:53:14;101611.25;;;16.88;79.49
47753;BME280;2038;51.728;6.674;2023-05-20T06:55:40;101606.16;;;16.90;79.54
47753;BME280;2038;51.728;6.674;2023-05-20T06:58:07;101598.94;;;16.99;79.78
47753;BME280;2038;51.728;6.674;2023-05-20T07:00:33;101597.34;;;17.01;80.68
47753;BME280;2038;51.728;6.674;2023-05-20T07:02:59;101594.03;;;17.19;79.68
47753;BME280;2038;51.728;6.674;2023-05-20T07:05:25;101594.97;;;17.38;80.96
47753;BME280;2038;51.728;6.674;2023-05-20T07:07:53;101594.81;;;17.35;77.71
47753;BME280;2038;51.728;6.674;2023-05-20T07:10:19;101595.44;;;17.47;78.02
47753;BME280;2038;51.728;6.674;2023-05-20T07:12:46;101593.91;;;17.50;77.87
47753;BME280;2038;51.728;6.674;2023-05-20T07:15:12;101594.06;;;17.53;77.87
47753;BME280;2038;51.728;6.674;2023-05-20T07:17:38;101596.81;;;17.56;77.61
47753;BME280;2038;51.728;6.674;2023-05-20T07:20:05;101595.69;;;17.67;77.86
47753;BME280;2038;51.728;6.674;2023-05-20T07:22:32;101593.03;;;17.66;78.23
47753;BME280;2038;51.728;6.674;2023-05-20T07:24:59;101591.00;;;17.76;77.27
47753;BME280;2038;51.728;6.674;2023-05-20T07:27:26;101587.38;;;17.73;75.58
47753;BME280;2038;51.728;6.674;2023-05-20T07:29:52;101592.75;;;17.77;75.88
47753;BME280;2038;51.728;6.674;2023-05-20T07:32:18;101598.00;;;17.79;75.26
47753;BME280;2038;51.728;6.674;2023-05-20T07:34:44;101588.66;;;17.81;74.49
47753;BME280;2038;51.728;6.674;2023-05-20T07:37:11;101579.84;;;17.77;74.47
47753;BME280;2038;51.728;6.674;2023-05-20T07:39:37;101583.41;;;17.80;76.56
47753;BME280;2038;51.728;6.674;2023-05-20T07:42:04;101581.66;;;17.96;75.91
47753;BME280;2038;51.728;6.674;2023-05-20T07:44:30;101579.59;;;18.07;75.47
47753;BME280;2038;51.728;6.674;2023-05-20T07:46:56;101571.50;;;18.17;75.85
47753;BME280;2038;51.728;6.674;2023-05-20T07:49:23;101573.25;;;18.18;75.08
47753;BME280;2038;51.728;6.674;2023-05-20T07:51:49;101566.75;;;18.26;75.34
47753;BME280;2038;51.728;6.674;2023-05-20T07:54:15;101564.16;;;18.26;75.65
47753;BME280;2038;51.728;6.674;2023-05-20T07:56:42;101567.78;;;18.30;74.21
47753;BME280;2038;51.728;6.674;2023-05-20T07:59:08;101585.63;;;18.07;72.90
47753;BME280;2038;51.728;6.674;2023-05-20T08:01:34;101580.75;;;18.13;73.32
47753;BME280;2038;51.728;6.674;2023-05-20T08:04:01;101566.53;;;18.21;73.78
47753;BME280;2038;51.728;6.674;2023-05-20T08:06:27;101575.38;;;18.27;74.30
47753;BME280;2038;51.728;6.674;2023-05-20T08:08:54;101570.25;;;18.09;73.42
47753;BME280;2038;51.728;6.674;2023-05-20T08:11:21;101573.03;;;18.13;74.11
47753;BME280;2038;51.728;6.674;2023-05-20T08:13:47;101574.03;;;18.35;73.33
47753;BME280;2038;51.728;6.674;2023-05-20T08:16:14;101579.66;;;18.26;72.95
47753;BME280;2038;51.728;6.674;2023-05-20T08:18:40;101564.91;;;18.41;74.97
47753;BME280;2038;51.728;6.674;2023-05-20T08:21:07;101563.06;;;18.39;73.09
47753;BME280;2038;51.728;6.674;2023-05-20T08:23:33;101577.75;;;18.40;72.78
47753;BME280;2038;51.728;6.674;2023-05-20T08:26:01;101571.78;;;18.41;73.64
47753;BME280;2038;51.728;6.674;2023-05-20T08:28:28;101567.75;;;18.47;74.02
47753;BME280;2038;51.728;6.674;2023-05-20T08:30:56;101559.94;;;18.63;73.88
47753;BME280;2038;51.728;6.674;2023-05-20T08:33:25;101560.41;;;18.55;72.63
47753;BME280;2038;51.728;6.674;2023-05-20T08:35:52;101571.28;;;18.67;73.03
47753;BME280;2038;51.728;6.674;2023-05-20T08:38:18;101553.44;;;18.72;73.37
47753;BME280;2038;51.728;6.674;2023-05-20T08:40:45;101567.69;;;18.63;72.87
47753;BME280;2038;51.728;6.674;2023-05-20T08:43:11;101557.03;;;18.75;74.48
47753;BME280;2038;51.728;6.674;2023-05-20T08:45:38;101555.81;;;18.86;74.93
47753;BME280;2038;51.728;6.674;2023-05-20T08:48:04;101563.50;;;19.04;74.15
47753;BME280;2038;51.728;6.674;2023-05-20T08:50:31;101554.19;;;19.07;72.63
47753;BME280;2038;51.728;6.674;2023-05-20T08:52:58;101550.91;;;19.11;72.40
47753;BME280;2038;51.728;6.674;2023-05-20T08:58:03;101547.28;;;19.27;73.09
47753;BME280;2038;51.728;6.674;2023-05-20T09:00:30;101546.59;;;19.31;72.58
47753;BME280;2038;51.728;6.674;2023-05-20T09:02:57;101558.22;;;19.41;72.04
47753;BME280;2038;51.728;6.674;2023-05-20T09:05:25;101558.16;;;19.39;71.35
47753;BME280;2038;51.728;6.674;2023-05-20T09:07:52;101556.50;;;19.21;72.00
47753;BME280;2038;51.728;6.674;2023-05-20T09:10:29;101559.56;;;18.74;72.14
47753;BME280;2038;51.728;6.674;2023-05-20T09:12:56;101555.56;;;18.80;73.63
47753;BME280;2038;51.728;6.674;2023-05-20T09:15:22;101559.78;;;18.97;73.83
47753;BME280;2038;51.728;6.674;2023-05-20T09:17:49;101545.81;;;18.75;72.35
47753;BME280;2038;51.728;6.674;2023-05-20T09:20:15;101553.50;;;18.92;73.48
47753;BME280;2038;51.728;6.674;2023-05-20T09:22:42;101546.78;;;18.96;72.43
47753;BME280;2038;51.728;6.674;2023-05-20T09:25:08;101552.97;;;18.99;74.07
47753;BME280;2038;51.728;6.674;2023-05-20T09:27:37;101558.06;;;19.17;72.45
47753;BME280;2038;51.728;6.674;2023-05-20T09:30:06;101551.56;;;19.27;72.76
47753;BME280;2038;51.728;6.674;2023-05-20T09:32:32;101547.69;;;19.55;71.43
47753;BME280;2038;51.728;6.674;2023-05-20T09:34:59;101543.13;;;19.71;72.70
47753;BME280;2038;51.728;6.674;2023-05-20T09:37:27;101549.81;;;19.86;72.08
47753;BME280;2038;51.728;6.674;2023-05-20T09:39:56;101537.31;;;19.97;69.47
47753;BME280;2038;51.728;6.674;2023-05-20T09:42:39;101551.47;;;19.84;69.32
47753;BME280;2038;51.728;6.674;2023-05-20T09:45:08;101551.69;;;19.90;70.77
47753;BME280;2038;51.728;6.674;2023-05-20T09:47:38;101556.72;;;19.86;71.70
47753;BME280;2038;51.728;6.674;2023-05-20T09:50:08;101553.03;;;19.60;69.68
47753;BME280;2038;51.728;6.674;2023-05-20T09:52:37;101544.97;;;19.52;69.71
47753;BME280;2038;51.728;6.674;2023-05-20T09:55:05;101553.06;;;19.41;71.02
47753;BME280;2038;51.728;6.674;2023-05-20T09:57:35;101551.09;;;19.35;69.36
47753;BME280;2038;51.728;6.674;2023-05-20T10:00:04;101552.22;;;19.21;70.75
47753;BME280;2038;51.728;6.674;2023-05-20T10:02:33;101546.63;;;19.12;71.68
47753;BME280;2038;51.728;6.674;2023-05-20T10:05:04;101547.59;;;18.95;71.73
47753;BME280;2038;51.728;6.674;2023-05-20T10:19:48;101536.13;;;18.69;72.50
47753;BME280;2038;51.728;6.674;2023-05-20T10:22:26;101527.41;;;18.67;72.54
47753;BME280;2038;51.728;6.674;2023-05-20T10:25:02;101521.75;;;18.56;72.34
47753;BME280;2038;51.728;6.674;2023-05-20T10:27:46;101519.97;;;18.55;73.58
47753;BME280;2038;51.728;6.674;2023-05-20T10:30:18;101528.16;;;18.64;74.27
47753;BME280;2038;51.728;6.674;2023-05-20T10:32:52;101521.75;;;18.76;73.59
47753;BME280;2038;51.728;6.674;2023-05-20T10:35:24;101518.75;;;18.86;72.66
47753;BME280;2038;51.728;6.674;2023-05-20T10:37:52;101518.94;;;18.69;73.89
47753;BME280;2038;51.728;6.674;2023-05-20T10:40:21;101513.03;;;18.54;73.88
47753;BME280;2038;51.728;6.674;2023-05-20T10:42:47;101516.81;;;18.80;74.62
47753;BME280;2038;51.728;6.674;2023-05-20T10:45:25;101510.84;;;18.81;73.22
47753;BME280;2038;51.728;6.674;2023-05-20T10:47:57;101505.81;;;18.65;73.05
47753;BME280;2038;51.728;6.674;2023-05-20T10:50:36;101508.94;;;18.77;72.44
47753;BME280;2038;51.728;6.674;2023-05-20T10:53:06;101501.03;;;18.74;72.36
47753;BME280;2038;51.728;6.674;2023-05-20T10:55:38;101494.13;;;18.73;73.67
47753;BME280;2038;51.728;6.674;2023-05-20T10:58:06;101489.75;;;18.91;74.91
47753;BME280;2038;51.728;6.674;2023-05-20T11:00:34;101488.50;;;19.02;73.64
47753;BME280;2038;51.728;6.674;2023-05-20T11:03:03;101483.19;;;18.99;73.02
47753;BME280;2038;51.728;6.674;2023-05-20T11:05:30;101482.28;;;19.18;74.29
47753;BME280;2038;51.728;6.674;2023-05-20T11:08:05;101485.53;;;19.33;75.19
47753;BME280;2038;51.728;6.674;2023-05-20T11:10:34;101483.41;;;19.44;73.34
47753;BME280;2038;51.728;6.674;2023-05-20T11:13:02;101477.94;;;19.57;72.17
47753;BME280;2038;51.728;6.674;2023-05-20T11:15:33;101475.06;;;19.51;74.21
47753;BME280;2038;51.728;6.674;2023-05-20T11:18:02;101470.59;;;19.68;72.77
47753;BME280;2038;51.728;6.674;2023-05-20T11:20:30;101468.09;;;19.91;72.01
47753;BME280;2038;51.728;6.674;2023-05-20T11:23:00;101462.22;;;19.95;72.09
47753;BME280;2038;51.728;6.674;2023-05-20T11:25:28;101462.28;;;19.97;73.02
47753;BME280;2038;51.728;6.674;2023-05-20T11:27:54;101464.16;;;20.01;71.68
47753;BME280;2038;51.728;6.674;2023-05-20T11:30:21;101464.75;;;20.16;72.21
47753;BME280;2038;51.728;6.674;2023-05-20T11:33:06;101474.78;;;20.29;71.73
47753;BME280;2038;51.728;6.674;2023-05-20T11:35:44;101467.81;;;19.63;71.67
47753;BME280;2038;51.728;6.674;2023-05-20T11:38:18;101464.28;;;20.04;72.28
47753;BME280;2038;51.728;6.674;2023-05-20T11:40:50;101468.63;;;20.05;71.72
47753;BME280;2038;51.728;6.674;2023-05-20T11:43:19;101467.78;;;20.06;72.04
47753;BME280;2038;51.728;6.674;2023-05-20T11:45:53;101455.22;;;19.93;71.79
47753;BME280;2038;51.728;6.674;2023-05-20T11:48:20;101452.41;;;20.09;72.57
47753;BME280;2038;51.728;6.674;2023-05-20T11:50:47;101445.22;;;20.02;73.21
47753;BME280;2038;51.728;6.674;2023-05-20T11:53:15;101453.50;;;20.16;73.28
47753;BME280;2038;51.728;6.674;2023-05-20T11:55:49;101454.44;;;20.40;71.52
47753;BME280;2038;51.728;6.674;2023-05-20T11:58:22;101451.09;;;20.42;71.41
47753;BME280;2038;51.728;6.674;2023-05-20T12:00:52;101450.38;;;20.46;71.33
47753;BME280;2038;51.728;6.674;2023-05-20T12:03:18;101439.88;;;20.42;69.58
47753;BME280;2038;51.728;6.674;2023-05-20T12:05:45;101428.38;;;20.35;70.01
47753;BME280;2038;51.728;6.674;2023-05-20T12:08:16;101427.22;;;20.51;70.99
47753;BME280;2038;51.728;6.674;2023-05-20T12:10:42;101421.16;;;20.50;70.06
47753;BME280;2038;51.728;6.674;2023-05-20T12:13:09;101419.97;;;20.65;69.46
47753;BME280;2038;51.728;6.674;2023-05-20T12:15:38;101405.78;;;20.55;68.59
47753;BME280;2038;51.728;6.674;2023-05-20T12:18:05;101408.50;;;20.58;69.44
47753;BME280;2038;51.728;6.674;2023-05-20T12:20:31;101408.00;;;20.68;70.63
47753;BME280;2038;51.728;6.674;2023-05-20T12:23:02;101408.06;;;20.46;68.52
47753;BME280;2038;51.728;6.674;2023-05-20T12:25:30;101399.44;;;20.71;69.12
47753;BME280;2038;51.728;6.674;2023-05-20T12:27:57;101414.13;;;20.70;69.47
47753;BME280;2038;51.728;6.674;2023-05-20T12:30:24;101406.25;;;20.92;69.22
47753;BME280;2038;51.728;6.674;2023-05-20T12:32:50;101410.81;;;20.99;68.16
47753;BME280;2038;51.728;6.674;2023-05-20T12:35:23;101405.84;;;21.06;68.62
47753;BME280;2038;51.728;6.674;2023-05-20T12:37:51;101401.81;;;21.14;68.06
47753;BME280;2038;51.728;6.674;2023-05-20T12:40:18;101398.78;;;21.27;68.26
47753;BME280;2038;51.728;6.674;2023-05-20T12:42:44;101398.44;;;21.43;65.78
47753;BME280;2038;51.728;6.674;2023-05-20T12:45:10;101398.41;;;21.41;67.35
47753;BME280;2038;51.728;6.674;2023-05-20T12:47:39;101388.59;;;21.60;66.15
47753;BME280;2038;51.728;6.674;2023-05-20T12:50:05;101393.47;;;21.49;67.67
47753;BME280;2038;51.728;6.674;2023-05-20T12:52:32;101386.22;;;21.67;66.56
47753;BME280;2038;51.728;6.674;2023-05-20T12:54:58;101382.72;;;21.65;66.35
47753;BME280;2038;51.728;6.674;2023-05-20T12:57:24;101383.56;;;21.64;68.37
47753;BME280;2038;51.728;6.674;2023-05-20T12:59:51;101388.28;;;21.49;67.22
47753;BME280;2038;51.728;6.674;2023-05-20T13:02:17;101390.41;;;21.35;65.36
47753;BME280;2038;51.728;6.674;2023-05-20T13:04:44;101380.72;;;21.57;66.40
47753;BME280;2038;51.728;6.674;2023-05-20T13:07:10;101386.72;;;21.56;65.70
47753;BME280;2038;51.728;6.674;2023-05-20T13:09:36;101390.00;;;21.77;65.48
47753;BME280;2038;51.728;6.674;2023-05-20T13:12:02;101379.75;;;21.81;64.92
47753;BME280;2038;51.728;6.674;2023-05-20T13:14:29;101386.09;;;21.91;64.00
47753;BME280;2038;51.728;6.674;2023-05-20T13:16:55;101383.88;;;21.75;64.27
47753;BME280;2038;51.728;6.674;2023-05-20T13:19:22;101382.13;;;21.74;65.00